createdAt,value
2023-10-06T00:00:56.040Z,7.12
2023-10-06T00:05:13.176Z,7.13
2023-10-06T00:09:30.733Z,7.04
2023-10-06T00:13:54.127Z,7.00
2023-10-06T00:18:11.243Z,7.01
2023-10-06T00:22:28.473Z,6.94
2023-10-06T00:26:44.832Z,6.88
2023-10-06T00:30:59.965Z,6.82
2023-10-06T00:35:17.709Z,6.82
2023-10-06T00:39:32.710Z,6.75
2023-10-06T00:43:46.069Z,6.73
2023-10-06T00:47:58.774Z,6.75
2023-10-06T00:52:14.064Z,6.77
2023-10-06T00:56:30.692Z,6.71
2023-10-06T01:00:43.387Z,6.62
2023-10-06T01:04:55.981Z,6.56
2023-10-06T01:09:14.180Z,6.58
2023-10-06T01:13:29.729Z,6.60
2023-10-06T01:17:42.691Z,6.59
2023-10-06T01:21:57.400Z,6.57
2023-10-06T01:26:10.169Z,6.55
2023-10-06T01:30:23.094Z,6.62
2023-10-06T01:34:40.519Z,6.53
2023-10-06T01:38:54.187Z,6.33
2023-10-06T01:43:11.722Z,6.44
2023-10-06T01:47:24.284Z,6.41
2023-10-06T01:51:37.777Z,6.33
2023-10-06T01:55:54.651Z,6.33
2023-10-06T02:00:17.045Z,6.37
2023-10-06T02:04:36.038Z,6.29
2023-10-06T02:08:57.263Z,6.26
2023-10-06T02:13:09.742Z,6.19
2023-10-06T02:17:22.327Z,6.28
2023-10-06T02:21:52.965Z,6.12
2023-10-06T02:26:11.081Z,5.98
2023-10-06T02:30:35.735Z,5.96
2023-10-06T02:34:48.284Z,5.99
2023-10-06T02:39:07.420Z,6.01
2023-10-06T02:43:22.442Z,5.93
2023-10-06T02:47:35.023Z,5.88
2023-10-06T02:51:50.543Z,5.88
2023-10-06T02:56:10.631Z,5.88
2023-10-06T03:00:23.316Z,5.80
2023-10-06T03:04:38.214Z,5.78
2023-10-06T03:08:50.688Z,5.83
2023-10-06T03:13:05.447Z,5.78
2023-10-06T03:17:21.694Z,5.87
2023-10-06T03:21:34.708Z,5.80
2023-10-06T03:25:51.277Z,5.86
2023-10-06T03:30:13.551Z,5.75
2023-10-06T03:34:26.142Z,5.71
2023-10-06T03:38:39.568Z,5.59
2023-10-06T03:42:54.578Z,5.72
2023-10-06T03:47:10.160Z,5.69
2023-10-06T03:51:23.159Z,5.62
2023-10-06T03:55:47.634Z,5.64
2023-10-06T04:00:00.277Z,5.58
2023-10-06T04:04:17.239Z,5.59
2023-10-06T04:08:29.984Z,5.65
2023-10-06T04:12:42.481Z,5.57
2023-10-06T04:16:55.378Z,5.51
2023-10-06T04:21:13.140Z,5.53
2023-10-06T04:25:25.659Z,5.52
2023-10-06T04:29:40.193Z,5.62
2023-10-06T04:33:52.838Z,5.48
2023-10-06T04:38:08.015Z,5.49
2023-10-06T04:42:21.700Z,5.42
2023-10-06T04:46:37.044Z,5.46
2023-10-06T04:50:53.667Z,5.52
2023-10-06T04:55:12.214Z,5.76
2023-10-06T04:59:24.805Z,5.51
2023-10-06T05:03:46.701Z,5.53
2023-10-06T05:07:59.721Z,5.55
2023-10-06T05:12:13.115Z,5.65
2023-10-06T05:16:29.355Z,5.62
2023-10-06T05:20:41.936Z,5.55
2023-10-06T05:24:54.675Z,5.61
2023-10-06T05:29:07.564Z,5.59
2023-10-06T05:33:20.174Z,5.70
2023-10-06T05:37:34.172Z,5.80
2023-10-06T05:41:46.982Z,5.95
2023-10-06T05:45:59.508Z,6.05
2023-10-06T05:50:13.047Z,6.16
2023-10-06T05:54:25.513Z,6.33
2023-10-06T05:58:42.812Z,6.40
2023-10-06T06:03:00.168Z,6.52
2023-10-06T06:07:12.946Z,6.62
2023-10-06T06:11:26.673Z,6.71
2023-10-06T06:15:41.252Z,6.76
2023-10-06T06:20:04.770Z,6.81
2023-10-06T06:24:25.076Z,7.00
2023-10-06T06:28:38.424Z,7.19
2023-10-06T06:32:52.374Z,7.42
2023-10-06T06:37:04.928Z,7.57
2023-10-06T06:41:17.803Z,7.80
2023-10-06T06:45:38.190Z,8.11
2023-10-06T06:49:51.376Z,8.28
2023-10-06T06:54:04.100Z,8.47
2023-10-06T06:58:18.529Z,8.76
2023-10-06T07:02:31.130Z,8.81
2023-10-06T07:06:44.790Z,8.92
2023-10-06T07:10:58.236Z,8.96
2023-10-06T07:15:19.478Z,9.16
2023-10-06T07:19:31.972Z,9.17
2023-10-06T07:23:44.667Z,9.43
2023-10-06T07:28:00.555Z,9.81
2023-10-06T07:32:15.848Z,10.06
2023-10-06T07:36:31.070Z,10.23
2023-10-06T07:40:46.836Z,10.39
2023-10-06T07:44:59.829Z,10.67
2023-10-06T07:49:12.614Z,10.87
2023-10-06T07:53:25.834Z,11.09
2023-10-06T07:57:43.184Z,11.17
2023-10-06T08:01:55.796Z,11.47
2023-10-06T08:06:08.568Z,11.72
2023-10-06T08:10:21.609Z,11.82
2023-10-06T08:14:34.332Z,12.12
2023-10-06T08:18:49.945Z,12.23
2023-10-06T08:23:02.580Z,12.51
2023-10-06T08:27:15.144Z,12.77
2023-10-06T08:31:28.500Z,12.72
2023-10-06T08:35:42.277Z,13.12
2023-10-06T08:39:57.030Z,13.44
2023-10-06T08:44:11.117Z,13.37
2023-10-06T08:48:29.481Z,13.81
2023-10-06T08:52:43.147Z,14.10
2023-10-06T08:56:55.667Z,14.80
2023-10-06T09:01:08.866Z,15.22
2023-10-06T09:05:21.854Z,15.63
2023-10-06T09:09:35.024Z,16.53
2023-10-06T09:13:48.109Z,16.66
2023-10-06T09:18:01.402Z,16.99
2023-10-06T09:22:13.925Z,17.31
2023-10-06T09:26:33.651Z,17.49
2023-10-06T09:31:04.323Z,17.51
2023-10-06T09:35:21.458Z,17.47
2023-10-06T09:39:36.751Z,17.96
2023-10-06T09:43:51.025Z,18.43
2023-10-06T09:48:10.370Z,18.81
2023-10-06T09:52:26.113Z,19.29
2023-10-06T09:56:43.773Z,19.06
2023-10-06T10:00:57.522Z,19.24
2023-10-06T10:05:12.914Z,19.27
2023-10-06T10:09:26.953Z,19.39
2023-10-06T10:13:47.530Z,19.58
2023-10-06T10:18:11.546Z,20.04
2023-10-06T10:22:28.270Z,19.28
2023-10-06T10:26:41.843Z,20.18
2023-10-06T10:31:03.291Z,20.83
2023-10-06T10:35:18.739Z,21.19
2023-10-06T10:39:51.612Z,20.99
2023-10-06T10:44:24.706Z,20.78
2023-10-06T10:48:39.221Z,22.00
2023-10-06T10:52:55.687Z,21.55
2023-10-06T10:57:11.509Z,21.61
2023-10-06T11:01:40.531Z,21.10
2023-10-06T11:05:58.863Z,21.43
2023-10-06T11:10:14.859Z,21.96
2023-10-06T11:14:29.897Z,22.18
2023-10-06T11:18:43.152Z,22.08
2023-10-06T11:23:01.765Z,22.94
2023-10-06T11:27:23.603Z,21.97
2023-10-06T11:31:36.482Z,22.17
2023-10-06T11:35:49.086Z,22.38
2023-10-06T11:40:01.777Z,22.63
2023-10-06T11:44:14.292Z,23.72
2023-10-06T11:48:33.089Z,23.31
2023-10-06T11:52:46.127Z,23.01
2023-10-06T11:56:59.098Z,22.95
2023-10-06T12:01:30.529Z,23.47
2023-10-06T12:05:57.268Z,23.64
2023-10-06T12:10:10.780Z,24.33
2023-10-06T12:14:23.400Z,24.36
2023-10-06T12:18:37.375Z,23.29
2023-10-06T12:22:49.829Z,23.77
2023-10-06T12:27:02.368Z,23.49
2023-10-06T12:31:15.108Z,22.24
2023-10-06T12:35:30.919Z,22.84
2023-10-06T12:39:47.171Z,22.71
2023-10-06T12:44:06.803Z,22.60
2023-10-06T12:48:19.523Z,22.12
2023-10-06T12:52:33.094Z,21.85
2023-10-06T12:56:46.771Z,22.14
2023-10-06T13:00:59.304Z,22.27
2023-10-06T13:05:24.446Z,21.90
2023-10-06T13:09:38.516Z,21.51
2023-10-06T13:13:51.201Z,22.03
2023-10-06T13:18:03.835Z,22.39
2023-10-06T13:22:16.352Z,23.23
2023-10-06T13:26:40.537Z,23.82
2023-10-06T13:30:56.043Z,22.52
2023-10-06T13:35:13.793Z,22.92
2023-10-06T13:39:26.932Z,23.19
2023-10-06T13:43:39.524Z,23.39
2023-10-06T13:47:56.992Z,24.01
2023-10-06T13:52:09.613Z,25.05
2023-10-06T13:56:22.514Z,24.75
2023-10-06T14:00:37.366Z,24.16
2023-10-06T14:04:49.856Z,25.26
2023-10-06T14:09:02.398Z,25.48
2023-10-06T14:13:18.091Z,24.73
2023-10-06T14:17:34.366Z,24.82
2023-10-06T14:21:47.297Z,24.16
2023-10-06T14:26:02.576Z,25.11
2023-10-06T14:30:16.351Z,23.83
2023-10-06T14:34:47.528Z,24.33
2023-10-06T14:39:18.878Z,22.29
2023-10-06T14:43:49.760Z,21.53
2023-10-06T14:48:05.350Z,21.03
2023-10-06T14:52:18.369Z,20.64
2023-10-06T14:56:31.653Z,20.37
2023-10-06T15:00:44.278Z,20.16
2023-10-06T15:04:56.782Z,20.02
2023-10-06T15:09:19.689Z,19.90
2023-10-06T15:13:38.361Z,19.96
2023-10-06T15:18:09.173Z,19.85
2023-10-06T15:22:24.255Z,19.87
2023-10-06T15:26:36.865Z,19.76
2023-10-06T15:30:49.388Z,19.38
2023-10-06T15:35:02.637Z,19.24
2023-10-06T15:39:25.614Z,18.72
2023-10-06T15:43:43.842Z,18.24
2023-10-06T15:47:57.987Z,18.14
2023-10-06T15:52:10.556Z,17.75
2023-10-06T15:56:25.347Z,17.79
2023-10-06T16:00:41.914Z,17.29
2023-10-06T16:04:54.462Z,16.76
2023-10-06T16:09:18.166Z,16.53
2023-10-06T16:13:33.250Z,16.28
2023-10-06T16:17:46.208Z,15.88
2023-10-06T16:21:59.322Z,15.58
2023-10-06T16:26:13.639Z,15.30
2023-10-06T16:30:26.235Z,15.17
2023-10-06T16:34:40.074Z,14.83
2023-10-06T16:38:53.241Z,14.40
2023-10-06T16:43:11.193Z,14.28
2023-10-06T16:47:24.049Z,14.03
2023-10-06T16:51:36.802Z,13.71
2023-10-06T16:55:59.858Z,13.55
2023-10-06T17:00:14.574Z,13.37
2023-10-06T17:04:27.988Z,13.16
2023-10-06T17:08:41.854Z,12.96
2023-10-06T17:12:54.566Z,12.84
2023-10-06T17:17:07.167Z,12.92
2023-10-06T17:21:19.671Z,12.87
2023-10-06T17:25:33.483Z,12.71
2023-10-06T17:29:47.467Z,12.58
2023-10-06T17:34:00.530Z,12.37
2023-10-06T17:38:13.031Z,12.27
2023-10-06T17:42:25.569Z,12.13
2023-10-06T17:46:39.653Z,11.99
2023-10-06T17:50:52.628Z,11.90
2023-10-06T17:55:07.226Z,11.87
2023-10-06T17:59:20.124Z,11.80
2023-10-06T18:03:32.903Z,11.65
2023-10-06T18:07:46.656Z,11.60
2023-10-06T18:12:14.943Z,11.52
2023-10-06T18:16:31.741Z,11.48
2023-10-06T18:20:44.844Z,11.40
2023-10-06T18:24:57.401Z,11.41
2023-10-06T18:29:10.092Z,11.35
2023-10-06T18:33:22.865Z,11.35
2023-10-06T18:37:35.388Z,11.10
2023-10-06T18:41:49.142Z,11.08
2023-10-06T18:46:01.873Z,11.05
2023-10-06T18:50:20.624Z,11.10
2023-10-06T18:54:33.196Z,11.03
2023-10-06T18:58:48.017Z,10.90
2023-10-06T19:03:00.578Z,11.07
2023-10-06T19:07:14.819Z,11.07
2023-10-06T19:11:27.378Z,11.08
2023-10-06T19:15:43.850Z,10.97
2023-10-06T19:19:57.761Z,11.17
2023-10-06T19:24:11.226Z,11.07
2023-10-06T19:28:26.875Z,11.02
2023-10-06T19:32:41.289Z,10.96
2023-10-06T19:36:53.809Z,10.82
2023-10-06T19:41:16.406Z,10.65
2023-10-06T19:45:29.111Z,10.50
2023-10-06T19:49:41.756Z,10.41
2023-10-06T19:53:54.444Z,10.55
2023-10-06T19:58:09.534Z,10.39
2023-10-06T20:02:22.110Z,10.32
2023-10-06T20:06:40.068Z,10.22
2023-10-06T20:10:57.524Z,10.24
2023-10-06T20:15:12.995Z,10.18
2023-10-06T20:19:28.345Z,10.07
2023-10-06T20:23:42.067Z,10.04
2023-10-06T20:27:55.049Z,9.98
2023-10-06T20:32:09.506Z,9.88
2023-10-06T20:36:22.580Z,9.90
2023-10-06T20:40:36.233Z,9.78
2023-10-06T20:44:48.812Z,9.79
2023-10-06T20:49:02.634Z,9.70
2023-10-06T20:53:15.128Z,9.62
2023-10-06T20:57:29.381Z,9.58
2023-10-06T21:01:43.934Z,9.53
2023-10-06T21:05:58.745Z,9.62
2023-10-06T21:10:13.320Z,9.66
2023-10-06T21:14:25.873Z,9.59
2023-10-06T21:18:39.125Z,9.52
2023-10-06T21:22:52.013Z,9.57
2023-10-06T21:27:05.688Z,9.37
2023-10-06T21:31:18.298Z,9.42
2023-10-06T21:35:32.538Z,9.29
2023-10-06T21:39:45.585Z,9.17
2023-10-06T21:43:58.157Z,9.17
2023-10-06T21:48:10.736Z,9.13
2023-10-06T21:52:24.050Z,9.15
2023-10-06T21:56:36.916Z,9.17
2023-10-06T22:00:55.976Z,9.05
2023-10-06T22:05:09.591Z,9.04
2023-10-06T22:09:24.848Z,8.94
2023-10-06T22:13:37.457Z,8.95
2023-10-06T22:17:50.041Z,8.93
2023-10-06T22:22:03.367Z,8.85
2023-10-06T22:26:16.371Z,9.03
2023-10-06T22:30:29.276Z,8.94
2023-10-06T22:34:42.563Z,8.96
2023-10-06T22:38:56.302Z,8.91
2023-10-06T22:43:09.629Z,8.86
2023-10-06T22:47:22.131Z,8.88
2023-10-06T22:51:34.607Z,8.84
2023-10-06T22:55:47.249Z,8.82
2023-10-06T23:00:00.991Z,8.76
2023-10-06T23:04:13.604Z,8.83
2023-10-06T23:08:26.589Z,8.82
2023-10-06T23:12:39.932Z,8.92
2023-10-06T23:16:52.717Z,9.00
2023-10-06T23:21:07.758Z,9.40
2023-10-06T23:25:24.825Z,9.48
2023-10-06T23:29:37.748Z,9.71
2023-10-06T23:33:50.644Z,9.69
2023-10-06T23:38:08.403Z,9.65
2023-10-06T23:42:25.892Z,9.41
2023-10-06T23:46:40.417Z,9.46
2023-10-06T23:51:00.641Z,9.33
2023-10-06T23:55:16.540Z,9.12
2023-10-06T23:59:30.273Z,9.32
